Holualoa, Hawaii
Current Conditions -  °F | °C
As of 3:53 AM on Saturday 25 Oct 2014 (Local Time) from PHKO Reporting Station
Clear Clear  
Wind Chill: 76°   Ceiling: Unl
Heat Index: 76°   Visibility: 10mi
Dew Point: 65°   Wind: 3mph
Humidity: 69%   Direction: 90°E
Pressure: 29.96"   Gusts: NA
Location:  19.61°N, 155.94°W
Report Text: PHKO 251353Z AUTO 09003KT 10SM CLR 24/18 A2996 RMK AO2 SLP145 T02440183 TSNO
Loading
Personal Weather Stations






























Interactive Weather Map
Tropical Storm Tracking
New forecast layout! Learn more

10-Day Weather Forecast

Advertisements
Track Severe Weather on mobile